Time;durP1;ratioP1;P1;durP2;ratioP2;P2;SDS_P1;SDS_P2;PMS_P1;PMS_P2;Temp;Humidity;BMP_temperature;BMP_pressure;BME280_temperature;BME280_humidity;BME280_pressure;Samples;Min_cycle;Max_cycle;Signal;HPM_P1;HPM_P2
2022/10/11 00:00:08;;;;;;;25.57;23.87;;;15.50;99.90;;;;;;4931270;29;20489;-75
2022/10/11 00:02:35;;;;;;;26.60;24.33;;;15.60;99.90;;;;;;4931019;29;20457;-75
2022/10/11 00:05:01;;;;;;;26.17;24.30;;;15.70;99.90;;;;;;4930744;29;20453;-75
2022/10/11 00:07:29;;;;;;;27.43;25.33;;;15.70;99.90;;;;;;4930859;29;20832;-75
2022/10/11 00:09:56;;;;;;;27.60;25.40;;;15.70;99.90;;;;;;4930933;29;20460;-75
2022/10/11 00:12:23;;;;;;;28.17;25.87;;;15.60;99.90;;;;;;4930964;29;20456;-74
2022/10/11 00:14:50;;;;;;;28.40;26.10;;;15.50;99.90;;;;;;4931070;29;20896;-74
2022/10/11 00:17:17;;;;;;;29.50;27.30;;;15.50;99.90;;;;;;4930528;29;20947;-74
2022/10/11 00:19:43;;;;;;;27.10;25.20;;;15.50;99.90;;;;;;4930513;29;20474;-74
2022/10/11 00:22:10;;;;;;;27.30;25.23;;;15.40;99.90;;;;;;4930593;29;20857;-74
2022/10/11 00:24:38;;;;;;;24.87;22.87;;;15.30;99.90;;;;;;4931112;29;20465;-74
2022/10/11 00:27:05;;;;;;;26.33;23.93;;;15.20;99.90;;;;;;4931037;29;20912;-75
2022/10/11 00:29:32;;;;;;;25.23;23.27;;;15.10;99.90;;;;;;4930661;29;20464;-75
2022/10/11 00:31:58;;;;;;;23.90;22.30;;;15.10;99.90;;;;;;4930696;29;20851;-74
2022/10/11 00:34:25;;;;;;;23.80;22.17;;;15.00;99.90;;;;;;4930334;29;20493;-74
2022/10/11 00:36:52;;;;;;;25.30;23.50;;;15.00;99.90;;;;;;4930882;29;20975;-74
2022/10/11 00:39:19;;;;;;;25.50;23.37;;;14.90;99.90;;;;;;4930736;29;20453;-74
2022/10/11 00:41:48;;;;;;;27.13;24.93;;;14.90;99.90;;;;;;4930482;29;20457;-74
2022/10/11 00:44:18;;;;;;;25.23;22.80;;;15.00;99.90;;;;;;4930490;29;20728;-74
2022/10/11 00:46:51;;;;;;;25.63;23.67;;;15.00;99.90;;;;;;4930337;29;20466;-74
2022/10/11 00:49:24;;;;;;;26.90;24.80;;;15.00;99.90;;;;;;4930543;29;20470;-74
2022/10/11 00:51:54;;;;;;;25.27;23.40;;;15.00;99.90;;;;;;4930646;29;20461;-74
2022/10/11 00:54:24;;;;;;;25.90;23.90;;;14.90;99.90;;;;;;4930446;29;20481;-73
2022/10/11 00:56:56;;;;;;;26.53;24.60;;;14.80;99.90;;;;;;4930686;29;20851;-73
2022/10/11 00:59:25;;;;;;;26.77;24.80;;;14.80;99.90;;;;;;4930411;29;20939;-74
2022/10/11 01:01:52;;;;;;;26.93;24.93;;;14.90;99.90;;;;;;4930494;29;20457;-73
2022/10/11 01:04:19;;;;;;;29.33;26.90;;;14.70;99.90;;;;;;4932887;29;20916;-73
2022/10/11 01:06:48;;;;;;;28.93;26.97;;;14.70;99.90;;;;;;4933630;29;20453;-74
2022/10/11 01:09:15;;;;;;;30.67;28.60;;;14.70;99.90;;;;;;4933810;29;20840;-74
2022/10/11 01:11:43;;;;;;;30.80;28.43;;;14.60;99.90;;;;;;4933770;29;20454;-74
2022/10/11 01:14:35;;;;;;;31.20;28.70;;;14.60;99.90;;;;;;4933647;29;20489;-74
2022/10/11 01:17:12;;;;;;;30.70;28.53;;;14.60;99.90;;;;;;4933735;29;20494;-74
2022/10/11 01:19:57;;;;;;;33.93;31.43;;;14.50;99.90;;;;;;4933813;29;20476;-74
2022/10/11 01:22:49;;;;;;;33.23;30.73;;;14.50;99.90;;;;;;4933583;29;20485;-74
2022/10/11 01:25:23;;;;;;;30.83;28.53;;;14.30;99.90;;;;;;4933768;29;20472;-75
2022/10/11 01:28:11;;;;;;;31.40;29.10;;;14.30;99.90;;;;;;4933952;29;20458;-75
2022/10/11 01:30:40;;;;;;;34.17;31.60;;;14.30;99.90;;;;;;4933729;29;20460;-75
2022/10/11 01:33:17;;;;;;;32.30;29.87;;;14.20;99.90;;;;;;4933750;29;20493;-74
2022/10/11 01:35:53;;;;;;;33.60;31.20;;;14.20;99.90;;;;;;4933377;29;20461;-75
2022/10/11 01:38:27;;;;;;;32.40;30.00;;;14.20;99.90;;;;;;4933636;29;20457;-75
2022/10/11 01:40:58;;;;;;;34.50;31.50;;;14.10;99.90;;;;;;4933752;29;20520;-75
2022/10/11 01:43:26;;;;;;;35.30;32.30;;;14.10;99.90;;;;;;4933351;29;20454;-75
2022/10/11 01:45:57;;;;;;;32.70;29.83;;;14.10;99.90;;;;;;4933624;29;20896;-75
2022/10/11 01:48:24;;;;;;;32.43;30.10;;;14.10;99.90;;;;;;4933343;29;20453;-75
2022/10/11 01:50:53;;;;;;;33.83;31.23;;;14.10;99.90;;;;;;4933525;29;20454;-75
2022/10/11 01:53:52;;;;;;;33.57;31.13;;;14.10;99.90;;;;;;4933553;29;20489;-75
2022/10/11 01:56:34;;;;;;;33.47;30.93;;;14.00;99.90;;;;;;4933458;29;20618;-74
2022/10/11 01:59:14;;;;;;;33.80;31.20;;;13.90;99.90;;;;;;4933144;29;20548;-75
2022/10/11 02:01:52;;;;;;;35.07;32.30;;;13.90;99.90;;;;;;4933015;29;20453;-75
2022/10/11 02:04:29;;;;;;;31.23;29.03;;;13.90;99.90;;;;;;4933234;29;20541;-75
2022/10/11 02:06:59;;;;;;;32.60;30.30;;;13.90;99.90;;;;;;4932956;29;20773;-74
2022/10/11 02:09:33;;;;;;;32.87;30.60;;;14.00;99.90;;;;;;4932739;29;20453;-74
2022/10/11 02:12:05;;;;;;;34.43;31.70;;;13.90;99.90;;;;;;4932791;29;20655;-75
2022/10/11 02:14:34;;;;;;;32.17;29.70;;;14.00;99.90;;;;;;4931829;29;20496;-75
2022/10/11 02:17:06;;;;;;;32.87;30.43;;;14.00;99.90;;;;;;4933104;29;20464;-74
2022/10/11 02:19:38;;;;;;;33.03;30.03;;;14.00;99.90;;;;;;4933080;29;20477;-74
2022/10/11 02:22:09;;;;;;;32.23;29.93;;;13.90;99.90;;;;;;4932965;29;20983;-74
2022/10/11 02:24:40;;;;;;;34.10;31.70;;;14.00;99.90;;;;;;4932872;29;20453;-74
2022/10/11 02:27:09;;;;;;;36.90;33.73;;;13.90;99.90;;;;;;4932927;29;20457;-74
2022/10/11 02:29:39;;;;;;;33.77;30.97;;;13.90;99.90;;;;;;4932861;29;20453;-74
2022/10/11 02:32:09;;;;;;;34.43;31.60;;;13.90;99.90;;;;;;4932825;29;20480;-75
2022/10/11 02:34:38;;;;;;;33.83;31.23;;;13.90;99.90;;;;;;4932596;29;20490;-75
2022/10/11 02:37:10;;;;;;;35.10;32.50;;;13.90;99.90;;;;;;4932628;29;20453;-74
2022/10/11 02:39:41;;;;;;;36.90;33.73;;;14.00;99.90;;;;;;4932723;29;20464;-74
2022/10/11 02:42:14;;;;;;;33.00;30.70;;;14.10;99.90;;;;;;4932394;29;20453;-74
2022/10/11 02:44:44;;;;;;;34.40;31.90;;;14.10;99.90;;;;;;4932081;29;20446;-74
2022/10/11 02:47:13;;;;;;;34.50;31.70;;;14.20;99.90;;;;;;4932131;29;20465;-73
2022/10/11 02:49:40;;;;;;;33.40;30.80;;;14.30;99.90;;;;;;4931913;29;20453;-74
2022/10/11 02:52:07;;;;;;;34.43;31.40;;;14.20;99.90;;;;;;4932307;29;20966;-73
2022/10/11 02:54:34;;;;;;;33.57;30.90;;;14.30;99.90;;;;;;4932132;29;20942;-74
2022/10/11 02:57:00;;;;;;;34.10;31.33;;;14.20;99.90;;;;;;4931827;29;20465;-74
2022/10/11 02:59:27;;;;;;;33.63;31.10;;;14.20;99.90;;;;;;4931805;29;20450;-74
2022/10/11 03:01:54;;;;;;;33.20;31.00;;;14.50;99.90;;;;;;4931836;29;20874;-73
2022/10/11 03:04:22;;;;;;;35.03;32.53;;;14.40;99.90;;;;;;4931890;29;20963;-74
2022/10/11 03:06:49;;;;;;;35.10;32.33;;;14.50;99.90;;;;;;4931719;29;20457;-75
2022/10/11 03:09:15;;;;;;;34.43;31.30;;;14.60;99.90;;;;;;4931570;29;20453;-74
2022/10/11 03:11:42;;;;;;;35.40;32.70;;;14.70;99.90;;;;;;4931457;29;20491;-74
2022/10/11 03:14:09;;;;;;;35.37;32.27;;;14.70;99.90;;;;;;4931685;29;20494;-74
2022/10/11 03:16:35;;;;;;;36.87;33.43;;;14.70;99.90;;;;;;4931805;29;20824;-74
2022/10/11 03:19:02;;;;;;;36.60;33.67;;;14.70;99.90;;;;;;4931451;29;20470;-74
2022/10/11 03:21:30;;;;;;;36.67;33.90;;;14.80;99.90;;;;;;4931306;29;21188;-75
2022/10/11 03:23:57;;;;;;;36.30;33.37;;;14.80;99.90;;;;;;4931436;29;20461;-74
2022/10/11 03:26:24;;;;;;;37.57;34.10;;;14.70;99.90;;;;;;4931270;29;20472;-73
2022/10/11 03:28:50;;;;;;;36.33;33.50;;;14.70;99.90;;;;;;4931766;29;20465;-73
2022/10/11 03:31:18;;;;;;;38.70;35.63;;;14.80;99.90;;;;;;4931175;29;20472;-72
2022/10/11 03:33:45;;;;;;;39.07;35.17;;;14.80;99.90;;;;;;4931315;29;20625;-74
2022/10/11 03:36:11;;;;;;;40.43;37.17;;;14.90;99.90;;;;;;4931129;29;20454;-74
2022/10/11 03:38:39;;;;;;;40.80;36.90;;;14.90;99.90;;;;;;4931570;29;20457;-75
2022/10/11 03:41:06;;;;;;;39.53;35.93;;;14.90;99.90;;;;;;4932008;29;20806;-75
2022/10/11 03:43:33;;;;;;;39.63;35.90;;;15.10;99.90;;;;;;4931582;29;20469;-74
2022/10/11 03:46:00;;;;;;;40.63;37.17;;;15.20;99.90;;;;;;4931416;29;20464;-74
2022/10/11 03:48:27;;;;;;;44.03;39.50;;;15.30;99.90;;;;;;4931436;29;20487;-75
2022/10/11 03:50:53;;;;;;;42.30;38.50;;;15.30;99.90;;;;;;4931549;29;20462;-74
2022/10/11 03:53:20;;;;;;;40.60;37.10;;;15.20;99.90;;;;;;4931674;29;20461;-74
2022/10/11 03:55:52;;;;;;;40.37;36.40;;;15.30;99.90;;;;;;4931150;29;20695;-75
2022/10/11 03:58:19;;;;;;;40.37;36.70;;;15.40;99.90;;;;;;4931561;29;20449;-74
2022/10/11 04:00:46;;;;;;;43.30;39.60;;;15.40;99.90;;;;;;4931050;29;20902;-74
2022/10/11 04:03:13;;;;;;;45.00;40.97;;;15.40;99.90;;;;;;4931198;29;20726;-74
2022/10/11 04:05:39;;;;;;;46.80;41.37;;;15.40;99.90;;;;;;4931462;29;20454;-74
2022/10/11 04:08:06;;;;;;;46.63;41.10;;;15.40;99.90;;;;;;4931620;29;20458;-74
2022/10/11 04:10:33;;;;;;;47.70;42.47;;;15.30;99.90;;;;;;4931210;29;20809;-75
2022/10/11 04:13:01;;;;;;;46.90;42.27;;;15.40;99.90;;;;;;4931090;29;20464;-74
2022/10/11 04:15:28;;;;;;;47.00;42.60;;;15.40;99.90;;;;;;4930902;29;20783;-74
2022/10/11 04:17:54;;;;;;;48.47;43.47;;;15.40;99.90;;;;;;4931157;29;20457;-74
2022/10/11 04:20:21;;;;;;;46.63;41.60;;;15.30;99.90;;;;;;4931018;29;20480;-74
2022/10/11 04:22:48;;;;;;;46.37;41.97;;;15.40;99.90;;;;;;4931099;29;20457;-75
2022/10/11 04:25:15;;;;;;;44.23;39.57;;;15.40;99.90;;;;;;4930920;29;20507;-75
2022/10/11 04:27:41;;;;;;;45.67;41.43;;;15.50;99.90;;;;;;4930718;29;20461;-75
2022/10/11 04:30:11;;;;;;;49.33;44.03;;;15.50;99.90;;;;;;4930886;29;20480;-74
2022/10/11 04:32:38;;;;;;;49.67;44.37;;;15.40;99.90;;;;;;4931156;29;20457;-75
2022/10/11 04:35:06;;;;;;;54.90;44.30;;;15.40;99.90;;;;;;4930993;29;20486;-74
2022/10/11 04:37:33;;;;;;;49.80;44.43;;;15.50;99.90;;;;;;4930568;29;20980;-75
2022/10/11 04:40:00;;;;;;;48.10;42.70;;;15.60;99.90;;;;;;4934404;29;20563;-74
2022/10/11 04:42:26;;;;;;;46.47;42.40;;;15.60;99.90;;;;;;4934256;29;20461;-74
2022/10/11 04:44:53;;;;;;;50.30;45.30;;;15.60;99.90;;;;;;4934339;29;20450;-75
2022/10/11 04:47:21;;;;;;;49.10;43.73;;;15.50;99.90;;;;;;4934688;29;20453;-72
2022/10/11 04:49:48;;;;;;;48.13;43.73;;;15.50;99.90;;;;;;4932748;29;20453;-72
2022/10/11 04:52:15;;;;;;;45.53;40.93;;;15.40;99.90;;;;;;4934941;29;20485;-73
2022/10/11 04:54:42;;;;;;;47.07;42.37;;;15.50;99.90;;;;;;4936995;29;20488;-73
2022/10/11 04:57:08;;;;;;;46.20;41.87;;;15.50;99.90;;;;;;4937604;29;20908;-73
2022/10/11 04:59:35;;;;;;;52.03;42.70;;;15.50;99.90;;;;;;4934903;29;20448;-73
2022/10/11 05:02:02;;;;;;;44.90;40.70;;;15.60;99.90;;;;;;4931527;29;20556;-73
2022/10/11 05:04:30;;;;;;;46.03;41.30;;;15.70;99.90;;;;;;4933718;29;20802;-73
2022/10/11 05:06:57;;;;;;;44.13;39.83;;;15.70;99.90;;;;;;4933923;29;20461;-73
2022/10/11 05:09:23;;;;;;;46.70;41.80;;;15.70;99.90;;;;;;4934351;29;20457;-74
2022/10/11 05:11:50;;;;;;;45.53;41.33;;;15.80;99.90;;;;;;4934339;29;20456;-73
2022/10/11 05:14:17;;;;;;;45.57;41.00;;;15.70;99.90;;;;;;4933784;29;20991;-73
2022/10/11 05:16:43;;;;;;;44.87;40.10;;;15.80;99.90;;;;;;4933819;29;20828;-73
2022/10/11 05:19:11;;;;;;;45.40;40.50;;;15.90;99.90;;;;;;4933433;29;20484;-73
2022/10/11 05:21:39;;;;;;;44.77;40.00;;;15.80;99.90;;;;;;4933884;29;20485;-73
2022/10/11 05:24:07;;;;;;;47.43;41.00;;;15.80;99.90;;;;;;4933942;29;20457;-73
2022/10/11 05:26:33;;;;;;;48.20;43.93;;;15.80;99.90;;;;;;4934037;29;20777;-74
2022/10/11 05:29:00;;;;;;;48.00;42.10;;;15.70;99.90;;;;;;4933989;29;20487;-73
2022/10/11 05:31:27;;;;;;;45.87;40.90;;;15.70;99.90;;;;;;4933736;29;20457;-74
2022/10/11 05:33:54;;;;;;;45.37;40.97;;;15.80;99.90;;;;;;4933890;29;20454;-73
2022/10/11 05:36:21;;;;;;;47.23;42.70;;;15.80;99.90;;;;;;4933730;29;20493;-74
2022/10/11 05:38:49;;;;;;;44.17;39.87;;;15.90;99.90;;;;;;4933486;29;20454;-73
2022/10/11 05:41:16;;;;;;;45.93;41.23;;;15.90;99.90;;;;;;4933464;29;20454;-73
2022/10/11 05:43:44;;;;;;;45.17;40.43;;;15.80;99.90;;;;;;4933419;29;20481;-73
2022/10/11 05:46:11;;;;;;;49.27;41.20;;;15.80;99.90;;;;;;4933297;29;20461;-74
2022/10/11 05:48:38;;;;;;;43.63;39.40;;;15.70;99.90;;;;;;4933266;29;20799;-73
2022/10/11 05:51:08;;;;;;;46.00;41.60;;;15.80;99.90;;;;;;4933346;29;20457;-74
2022/10/11 05:53:35;;;;;;;43.53;39.50;;;15.90;99.90;;;;;;4933722;29;20457;-73
2022/10/11 05:56:04;;;;;;;45.33;41.30;;;15.70;99.90;;;;;;4933011;29;20493;-73
2022/10/11 05:58:30;;;;;;;41.87;37.33;;;15.60;99.90;;;;;;4933172;29;20476;-73
2022/10/11 06:00:57;;;;;;;41.67;37.60;;;15.60;99.90;;;;;;4933013;29;20458;-74
2022/10/11 06:03:24;;;;;;;41.10;36.90;;;15.60;99.90;;;;;;4932878;29;20453;-72
2022/10/11 06:05:51;;;;;;;40.43;36.53;;;15.50;99.90;;;;;;4933200;29;20449;-72
2022/10/11 06:08:17;;;;;;;43.37;39.27;;;15.50;99.90;;;;;;4932896;29;20794;-73
2022/10/11 06:10:44;;;;;;;41.63;37.90;;;15.30;99.90;;;;;;4932592;29;20457;-73
2022/10/11 06:13:12;;;;;;;42.03;37.60;;;15.40;99.90;;;;;;4932571;29;20449;-74
2022/10/11 06:15:40;;;;;;;38.07;34.30;;;15.30;99.90;;;;;;4932481;29;20603;-73
2022/10/11 06:18:06;;;;;;;37.57;33.80;;;15.40;99.90;;;;;;4932608;29;21019;-73
2022/10/11 06:20:33;;;;;;;39.33;35.70;;;15.40;99.90;;;;;;4932372;29;20489;-73
2022/10/11 06:23:00;;;;;;;37.40;33.63;;;15.40;99.90;;;;;;4932405;29;20449;-73
2022/10/11 06:25:27;;;;;;;36.10;32.80;;;15.30;99.90;;;;;;4932120;29;20449;-73
2022/10/11 06:27:53;;;;;;;36.30;32.73;;;15.30;99.90;;;;;;4932745;29;20454;-72
2022/10/11 06:30:22;;;;;;;36.53;32.90;;;15.30;99.90;;;;;;4932589;29;20466;-73
2022/10/11 06:32:48;;;;;;;36.73;33.10;;;15.40;99.90;;;;;;4932771;29;20493;-73
2022/10/11 06:35:15;;;;;;;36.37;32.80;;;15.40;99.90;;;;;;4932772;29;20897;-73
2022/10/11 06:37:42;;;;;;;34.47;31.43;;;15.30;99.90;;;;;;4932990;29;20457;-73
2022/10/11 06:40:09;;;;;;;32.87;30.07;;;15.30;99.90;;;;;;4933163;29;20972;-74
2022/10/11 06:42:36;;;;;;;36.70;32.97;;;15.40;99.90;;;;;;4933005;29;20491;-74
2022/10/11 06:45:03;;;;;;;36.13;32.50;;;15.40;99.90;;;;;;4933060;29;20470;-73
2022/10/11 06:47:31;;;;;;;33.40;30.40;;;15.40;99.90;;;;;;4932607;29;20468;-74
2022/10/11 06:49:58;;;;;;;33.10;30.20;;;15.50;99.90;;;;;;4932747;29;20856;-74
2022/10/11 06:52:25;;;;;;;35.00;31.50;;;15.50;99.90;;;;;;4933102;29;20948;-73
2022/10/11 06:54:51;;;;;;;34.10;31.00;;;15.60;99.90;;;;;;4933018;29;20485;-74
2022/10/11 06:57:18;;;;;;;32.57;29.07;;;15.50;99.90;;;;;;4932827;29;20464;-75
2022/10/11 06:59:45;;;;;;;33.53;30.23;;;15.60;99.90;;;;;;4932572;29;20460;-73
2022/10/11 07:02:11;;;;;;;33.13;30.17;;;15.60;99.90;;;;;;4931847;29;20453;-72
2022/10/11 07:04:39;;;;;;;34.47;30.77;;;15.70;99.90;;;;;;4932791;29;20461;-72
2022/10/11 07:07:06;;;;;;;32.53;29.90;;;15.70;99.90;;;;;;4932692;29;20461;-72
2022/10/11 07:09:34;;;;;;;38.03;31.10;;;15.90;99.90;;;;;;4932591;29;20461;-73
2022/10/11 07:12:01;;;;;;;29.87;27.37;;;15.90;99.90;;;;;;4932225;29;20468;-73
2022/10/11 14:04:56;;;;;;;23.93;21.83;;;20.00;99.90;;;;;;5853565;23;21123;-74
2022/10/11 14:07:27;;;;;;;21.77;20.17;;;20.20;99.90;;;;;;4950770;28;20460;-71
2022/10/11 14:09:55;;;;;;;21.20;19.47;;;20.10;99.90;;;;;;4952946;28;20453;-71
2022/10/11 14:12:31;;;;;;;20.80;19.30;;;20.00;99.90;;;;;;4953066;28;20452;-71
2022/10/11 14:14:59;;;;;;;21.90;20.03;;;20.10;99.90;;;;;;4944362;29;20450;-71
2022/10/11 14:17:41;;;;;;;21.70;19.93;;;20.00;99.90;;;;;;4941922;28;20445;-71
2022/10/11 14:20:19;;;;;;;22.97;21.27;;;20.10;99.90;;;;;;4943388;28;20457;-71
2022/10/11 14:22:50;;;;;;;22.50;20.50;;;19.90;99.90;;;;;;4941834;28;20440;-72
2022/10/11 14:25:17;;;;;;;22.80;20.87;;;19.70;99.90;;;;;;4943778;28;20444;-71
2022/10/11 14:27:44;;;;;;;23.10;20.70;;;19.70;99.90;;;;;;4943121;28;20840;-72
2022/10/11 14:30:15;;;;;;;21.70;20.30;;;19.50;99.90;;;;;;4941358;29;20444;-72
2022/10/11 14:32:42;;;;;;;20.63;19.27;;;19.30;99.90;;;;;;4941766;28;20453;-71
2022/10/11 14:35:15;;;;;;;23.23;21.13;;;19.00;99.90;;;;;;4943225;28;20450;-72
2022/10/11 14:37:42;;;;;;;22.83;20.70;;;18.80;99.90;;;;;;4941905;28;20453;-71
2022/10/11 14:40:15;;;;;;;21.70;20.23;;;18.80;99.90;;;;;;4943087;29;20504;-73
2022/10/11 14:42:42;;;;;;;24.00;22.20;;;18.60;99.90;;;;;;4942278;28;20711;-72
2022/10/11 14:45:09;;;;;;;24.00;22.10;;;18.50;99.90;;;;;;4941145;29;20457;-73
2022/10/11 14:47:36;;;;;;;22.67;20.77;;;18.40;99.90;;;;;;4942876;28;20480;-73
2022/10/11 14:50:19;;;;;;;22.67;21.17;;;18.40;99.90;;;;;;4942444;29;20457;-72
2022/10/11 14:52:46;;;;;;;21.90;20.50;;;18.60;99.90;;;;;;4943048;28;20484;-72
2022/10/11 14:55:14;;;;;;;21.70;19.80;;;18.60;99.90;;;;;;4942664;28;20441;-72
2022/10/11 14:57:41;;;;;;;24.00;21.87;;;18.50;99.90;;;;;;4941843;29;20936;-73
2022/10/11 15:00:17;;;;;;;21.70;20.00;;;18.60;99.90;;;;;;4948903;28;20457;-73
2022/10/11 15:02:43;;;;;;;22.70;20.93;;;18.40;99.90;;;;;;4951903;28;21254;-73
2022/10/11 15:05:10;;;;;;;22.63;20.73;;;18.40;99.90;;;;;;4965172;28;20480;-72
2022/10/11 15:07:37;;;;;;;25.37;23.03;;;18.30;99.90;;;;;;4971137;28;20455;-74
2022/10/11 15:10:20;;;;;;;24.63;22.30;;;18.30;99.90;;;;;;4971325;28;20450;-72
2022/10/11 15:12:47;;;;;;;21.37;19.90;;;18.40;99.90;;;;;;4970712;28;20459;-73
2022/10/11 15:15:18;;;;;;;24.57;22.50;;;18.40;99.90;;;;;;4970651;28;20847;-73
2022/10/11 15:17:46;;;;;;;23.47;21.53;;;18.40;99.90;;;;;;4970727;28;20888;-73
2022/10/11 15:20:20;;;;;;;23.03;21.13;;;18.40;99.90;;;;;;4969860;28;20509;-72
2022/10/11 15:22:47;;;;;;;22.70;20.73;;;18.30;99.90;;;;;;4970206;28;20459;-73
2022/10/11 15:25:14;;;;;;;22.30;20.47;;;18.20;99.90;;;;;;4970134;28;20856;-73
2022/10/11 15:27:42;;;;;;;22.50;20.80;;;18.10;99.90;;;;;;4969933;28;20458;-72
2022/10/11 15:30:15;;;;;;;22.67;20.77;;;18.00;99.90;;;;;;4970766;28;20478;-73
2022/10/11 15:32:41;;;;;;;22.73;21.00;;;18.00;99.90;;;;;;4970143;28;20459;-73
2022/10/11 15:35:09;;;;;;;23.50;21.90;;;17.80;99.90;;;;;;4969498;28;20961;-73
2022/10/11 15:37:36;;;;;;;23.57;21.87;;;17.70;99.90;;;;;;4969757;28;21009;-72
2022/10/11 15:40:03;;;;;;;23.63;21.70;;;17.60;99.90;;;;;;4970704;28;20448;-73
2022/10/11 15:42:30;;;;;;;22.77;21.17;;;17.70;99.90;;;;;;4969079;28;20744;-72
2022/10/11 15:44:58;;;;;;;24.67;22.60;;;17.70;99.90;;;;;;4970411;28;20470;-72
2022/10/11 15:47:25;;;;;;;27.83;25.30;;;17.70;99.90;;;;;;4969809;28;20449;-73
2022/10/11 15:49:52;;;;;;;24.60;22.63;;;17.70;99.90;;;;;;4970600;28;20470;-73
2022/10/11 15:52:18;;;;;;;24.80;22.80;;;17.50;99.90;;;;;;4970637;28;20447;-74
2022/10/11 15:54:45;;;;;;;25.10;22.70;;;17.30;99.90;;;;;;4968047;28;20460;-74
2022/10/11 15:57:12;;;;;;;24.87;23.07;;;17.20;99.90;;;;;;4970016;28;21028;-73
2022/10/11 15:59:38;;;;;;;25.37;23.17;;;17.00;99.90;;;;;;4970165;28;20470;-73
2022/10/11 16:02:12;;;;;;;24.80;23.00;;;17.00;99.90;;;;;;4970310;28;20461;-74
2022/10/11 16:04:39;;;;;;;25.23;23.20;;;17.00;99.90;;;;;;4969749;28;20474;-72
2022/10/11 16:07:06;;;;;;;25.30;23.53;;;17.00;99.90;;;;;;4970179;28;20534;-72
2022/10/11 16:09:33;;;;;;;24.87;22.80;;;17.00;99.90;;;;;;4969978;28;20447;-72
2022/10/11 16:12:00;;;;;;;25.17;23.20;;;17.00;99.90;;;;;;4969892;28;20458;-73
2022/10/11 16:14:27;;;;;;;26.30;23.67;;;17.00;99.90;;;;;;4970041;28;20466;-72
2022/10/11 16:16:53;;;;;;;24.33;22.63;;;17.00;99.90;;;;;;4970044;28;20579;-72
2022/10/11 16:19:21;;;;;;;25.20;23.40;;;17.00;99.90;;;;;;4970041;28;20463;-72
2022/10/11 16:21:48;;;;;;;23.57;21.87;;;17.00;99.90;;;;;;4969980;28;20455;-73
2022/10/11 16:24:15;;;;;;;24.00;22.10;;;17.00;99.90;;;;;;4969792;28;20979;-73
2022/10/11 16:26:42;;;;;;;25.50;23.57;;;16.90;99.90;;;;;;4969892;28;20444;-73
2022/10/11 16:29:08;;;;;;;24.70;22.80;;;17.00;99.90;;;;;;4969959;28;20629;-72
2022/10/11 16:31:35;;;;;;;24.23;22.13;;;17.00;99.90;;;;;;4970353;28;20463;-72
2022/10/11 16:34:02;;;;;;;24.93;23.03;;;17.00;99.90;;;;;;4970500;28;20503;-73
2022/10/11 16:36:35;;;;;;;23.30;21.70;;;16.90;99.90;;;;;;4973473;28;20780;-72
2022/10/11 16:39:04;;;;;;;23.90;21.90;;;16.80;99.90;;;;;;4973724;28;20449;-73
2022/10/11 16:41:31;;;;;;;24.67;22.37;;;16.60;99.90;;;;;;4957124;28;20547;-72
2022/10/11 16:43:58;;;;;;;24.30;22.40;;;16.50;99.90;;;;;;4954163;28;20671;-72
2022/10/11 16:46:25;;;;;;;23.03;21.53;;;16.40;99.90;;;;;;4953990;28;20970;-72
2022/10/11 16:48:55;;;;;;;24.30;22.40;;;16.30;99.90;;;;;;4954606;28;20453;-73
2022/10/11 16:51:22;;;;;;;25.53;23.40;;;16.30;99.90;;;;;;4954363;28;20482;-73
2022/10/11 16:53:51;;;;;;;25.33;23.63;;;16.30;99.90;;;;;;4954285;28;20452;-73
2022/10/11 16:56:19;;;;;;;23.87;22.17;;;16.20;99.90;;;;;;4954084;28;20830;-73
2022/10/11 16:58:46;;;;;;;24.90;23.03;;;16.10;99.90;;;;;;4953761;28;20457;-73
2022/10/11 17:01:13;;;;;;;24.03;22.37;;;16.00;99.90;;;;;;4953940;28;20456;-73
2022/10/11 17:03:39;;;;;;;24.93;22.93;;;15.90;99.90;;;;;;4968320;28;20448;-73
2022/10/11 17:06:07;;;;;;;26.97;24.60;;;15.90;99.90;;;;;;4973116;28;20494;-73
2022/10/11 17:08:34;;;;;;;25.40;23.30;;;15.90;99.90;;;;;;4973183;28;20455;-73
2022/10/11 17:11:02;;;;;;;22.60;21.00;;;15.90;99.90;;;;;;4972778;28;20491;-73
2022/10/11 17:13:29;;;;;;;25.77;23.47;;;15.80;99.90;;;;;;4972887;28;20888;-73
2022/10/11 17:15:56;;;;;;;27.40;24.60;;;15.90;99.90;;;;;;4972707;28;20467;-73
2022/10/11 17:18:23;;;;;;;24.37;22.03;;;15.90;99.90;;;;;;4972435;28;20456;-73
2022/10/11 17:20:50;;;;;;;25.20;23.30;;;16.00;99.90;;;;;;4972403;28;20452;-73
2022/10/11 17:23:16;;;;;;;25.17;22.67;;;16.00;99.90;;;;;;4972535;28;20444;-73
2022/10/11 17:25:44;;;;;;;25.93;23.83;;;16.00;99.90;;;;;;4972430;28;20455;-73
2022/10/11 17:28:12;;;;;;;24.10;22.40;;;15.90;99.90;;;;;;4972326;28;20456;-73
2022/10/11 17:30:40;;;;;;;25.03;23.20;;;15.80;99.90;;;;;;4971948;28;20463;-73
2022/10/11 17:33:07;;;;;;;25.57;23.27;;;15.80;99.90;;;;;;4971830;28;20555;-73
2022/10/11 17:35:34;;;;;;;26.37;24.43;;;15.80;99.90;;;;;;4972368;28;20458;-73
2022/10/11 17:38:01;;;;;;;26.33;22.43;;;15.70;99.90;;;;;;4972076;28;20491;-73
2022/10/11 17:40:28;;;;;;;25.30;23.57;;;15.70;99.90;;;;;;4971518;28;20482;-72
2022/10/11 17:42:55;;;;;;;23.77;22.07;;;15.70;99.90;;;;;;4972007;28;20452;-73
2022/10/11 17:45:23;;;;;;;23.23;21.63;;;15.60;99.90;;;;;;4971584;28;20459;-73
2022/10/11 17:47:49;;;;;;;24.77;23.17;;;15.70;99.90;;;;;;4972250;28;20452;-73
2022/10/11 17:50:16;;;;;;;24.87;22.73;;;15.60;99.90;;;;;;4972029;28;20818;-73
2022/10/11 17:52:43;;;;;;;24.87;22.80;;;15.60;99.90;;;;;;4971622;28;20598;-72
2022/10/11 17:55:10;;;;;;;27.70;25.57;;;15.50;99.90;;;;;;4971759;28;20452;-72
2022/10/11 17:57:36;;;;;;;25.77;23.50;;;15.50;99.90;;;;;;4971742;28;20487;-73
2022/10/11 18:00:05;;;;;;;25.07;23.07;;;15.50;99.90;;;;;;4971473;28;20566;-73
2022/10/11 18:02:33;;;;;;;27.27;24.57;;;15.50;99.90;;;;;;4970005;28;20451;-73
2022/10/11 18:05:00;;;;;;;26.20;23.93;;;15.40;99.90;;;;;;4971975;28;20888;-74
2022/10/11 18:07:26;;;;;;;33.40;23.93;;;15.40;99.90;;;;;;4971887;28;20483;-73
2022/10/11 18:09:53;;;;;;;27.27;24.50;;;15.40;99.90;;;;;;4971963;28;20571;-73
2022/10/11 18:12:20;;;;;;;25.60;23.80;;;15.40;99.90;;;;;;4972342;28;20451;-73
2022/10/11 18:14:46;;;;;;;25.87;23.30;;;15.50;99.90;;;;;;4971947;28;20452;-72
2022/10/11 18:17:13;;;;;;;26.90;24.40;;;15.50;99.90;;;;;;4971770;28;20487;-73
2022/10/11 18:19:41;;;;;;;26.90;24.97;;;15.40;99.90;;;;;;4971958;28;20451;-72
2022/10/11 18:22:08;;;;;;;27.97;25.50;;;15.40;99.90;;;;;;4972003;28;20456;-73
2022/10/11 18:24:35;;;;;;;26.27;24.37;;;15.50;99.90;;;;;;4972235;28;20454;-73
2022/10/11 18:27:02;;;;;;;25.77;23.80;;;15.50;99.90;;;;;;4971925;28;20444;-73
2022/10/11 18:29:28;;;;;;;26.90;24.30;;;15.50;99.90;;;;;;4971754;28;20460;-73
2022/10/11 18:31:55;;;;;;;25.27;23.27;;;15.50;99.90;;;;;;4971803;28;20462;-74
2022/10/11 18:34:22;;;;;;;26.43;24.33;;;15.70;99.90;;;;;;4971195;28;20827;-74
2022/10/11 18:36:50;;;;;;;27.23;24.67;;;15.70;99.90;;;;;;4971888;28;20495;-72
2022/10/11 18:39:18;;;;;;;26.57;24.30;;;15.70;99.90;;;;;;4971526;28;20463;-73
2022/10/11 18:41:45;;;;;;;26.43;24.40;;;15.70;99.90;;;;;;4971431;28;20555;-73
2022/10/11 18:44:14;;;;;;;26.27;23.83;;;15.60;99.90;;;;;;4971566;28;20460;-73
2022/10/11 18:46:41;;;;;;;25.83;23.97;;;15.60;99.90;;;;;;4971362;28;20444;-73
2022/10/11 18:49:08;;;;;;;30.20;26.77;;;15.50;99.90;;;;;;4971332;28;20459;-72
2022/10/11 18:51:36;;;;;;;28.77;26.50;;;15.50;99.90;;;;;;4971735;28;20456;-73
2022/10/11 18:54:06;;;;;;;27.93;25.40;;;15.50;99.90;;;;;;4970994;28;20460;-73
2022/10/11 18:56:35;;;;;;;27.50;25.00;;;15.50;99.90;;;;;;4970588;28;20448;-74
2022/10/11 18:59:05;;;;;;;28.30;25.93;;;15.60;99.90;;;;;;4971314;28;20451;-73
2022/10/11 19:01:33;;;;;;;26.90;24.43;;;15.60;99.90;;;;;;4970830;28;20934;-74
2022/10/11 19:04:01;;;;;;;28.03;25.73;;;15.50;99.90;;;;;;4970855;28;20476;-73
2022/10/11 19:06:30;;;;;;;28.67;25.90;;;15.40;99.90;;;;;;4970697;28;20528;-73
2022/10/11 19:09:01;;;;;;;28.83;26.53;;;15.40;99.90;;;;;;4970531;28;20463;-72
2022/10/11 19:11:29;;;;;;;28.73;26.20;;;15.40;99.90;;;;;;4970871;28;20466;-72
2022/10/11 19:13:57;;;;;;;27.00;24.90;;;15.40;99.90;;;;;;4970233;28;20452;-72
2022/10/11 19:16:24;;;;;;;29.00;26.10;;;15.40;99.90;;;;;;4970579;28;20455;-73
2022/10/11 19:18:52;;;;;;;28.93;26.57;;;15.40;99.90;;;;;;4970966;28;20586;-72
2022/10/11 19:21:19;;;;;;;29.07;26.27;;;15.40;99.90;;;;;;4971042;28;20805;-73
2022/10/11 19:23:47;;;;;;;29.03;26.70;;;15.40;99.90;;;;;;4970411;28;20460;-73